Time;durP1;ratioP1;P1;durP2;ratioP2;P2;SDS_P1;SDS_P2;PMS_P1;PMS_P2;Temp;Humidity;BMP_temperature;BMP_pressure;BME280_temperature;BME280_humidity;BME280_pressure;Samples;Min_cycle;Max_cycle;Signal;HPM_P1;HPM_P2
2023/12/28 00:02:06;;;;;;;13.73;11.00;;;;;;;-142.06;100.00;64312.41;5057281;28;20185;-81
2023/12/28 00:04:34;;;;;;;14.53;11.53;;;;;;;-142.06;100.00;64312.41;5056008;28;20225;-79
2023/12/28 00:07:02;;;;;;;12.63;10.53;;;;;;;-142.06;100.00;64312.41;5048133;28;20202;-79
2023/12/28 00:09:29;;;;;;;12.40;10.73;;;;;;;-142.06;100.00;64312.41;5058528;28;20182;-79
2023/12/28 00:11:56;;;;;;;12.53;10.87;;;;;;;-142.06;100.00;64312.41;5054830;28;20280;-80
2023/12/28 00:14:23;;;;;;;13.17;10.80;;;;;;;-142.06;100.00;64312.41;5054932;28;20208;-80
2023/12/28 00:16:50;;;;;;;12.03;10.30;;;;;;;-142.06;100.00;64312.41;5053200;28;20274;-81
2023/12/28 00:19:16;;;;;;;11.70;9.83;;;;;;;-142.06;100.00;64312.41;5035739;28;20197;-80
2023/12/28 00:21:44;;;;;;;12.33;11.13;;;;;;;-142.06;100.00;64312.41;5056874;28;20280;-79
2023/12/28 00:24:11;;;;;;;12.70;11.27;;;;;;;-142.06;100.00;64312.41;5038132;28;20209;-81
2023/12/28 00:26:38;;;;;;;14.23;11.03;;;;;;;-142.06;100.00;64312.41;5055677;28;20205;-80
2023/12/28 00:29:05;;;;;;;13.80;11.13;;;;;;;-142.06;100.00;64312.41;5037798;28;20221;-81
2023/12/28 00:31:32;;;;;;;12.80;10.90;;;;;;;-142.06;100.00;64312.41;5061134;28;20216;-81
2023/12/28 00:33:59;;;;;;;15.17;11.43;;;;;;;-142.06;100.00;64312.41;5054227;28;20202;-80
2023/12/28 00:36:26;;;;;;;12.77;10.90;;;;;;;-142.06;100.00;64312.41;5039294;28;20245;-80
2023/12/28 00:38:53;;;;;;;13.23;11.23;;;;;;;-142.06;100.00;64312.41;5060854;28;20195;-79
2023/12/28 00:41:20;;;;;;;12.30;10.70;;;;;;;-142.06;100.00;64312.41;5042187;28;20201;-80
2023/12/28 00:43:48;;;;;;;14.43;11.33;;;;;;;-142.06;100.00;64312.41;5061444;28;20239;-79
2023/12/28 00:46:14;;;;;;;13.50;11.03;;;;;;;-142.06;100.00;64312.41;5052935;28;20185;-80
2023/12/28 00:48:41;;;;;;;13.40;10.77;;;;;;;-142.06;100.00;64312.41;5036365;28;20190;-80
2023/12/28 00:51:08;;;;;;;14.63;11.20;;;;;;;-142.06;100.00;64312.41;5053923;28;20197;-79
2023/12/28 00:53:35;;;;;;;12.63;10.80;;;;;;;-142.06;100.00;64312.41;5041357;28;20190;-80
2023/12/28 00:56:02;;;;;;;12.03;10.73;;;;;;;-142.06;100.00;64312.41;5025406;28;20232;-81
2023/12/28 00:58:29;;;;;;;12.67;10.67;;;;;;;-142.06;100.00;64312.41;5049567;28;20189;-80
2023/12/28 01:00:57;;;;;;;12.50;11.20;;;;;;;-142.06;100.00;64312.41;5053998;28;20231;-79
2023/12/28 01:03:24;;;;;;;12.23;10.93;;;;;;;-142.06;100.00;64312.41;5033546;28;20198;-79
2023/12/28 01:05:52;;;;;;;15.40;11.07;;;;;;;-142.06;100.00;64312.41;5054138;28;20237;-81
2023/12/28 01:08:19;;;;;;;12.20;10.20;;;;;;;-142.06;100.00;64312.41;5038406;28;20732;-80
2023/12/28 01:10:46;;;;;;;13.93;11.10;;;;;;;-142.06;100.00;64312.41;5055921;28;20189;-82
2023/12/28 01:13:13;;;;;;;12.70;10.80;;;;;;;-142.06;100.00;64312.41;5049750;28;20204;-79
2023/12/28 01:15:40;;;;;;;13.10;10.60;;;;;;;-142.06;100.00;64312.41;5054946;28;20308;-79
2023/12/28 01:18:07;;;;;;;13.77;10.90;;;;;;;-142.06;100.00;64312.41;5041893;28;20197;-79
2023/12/28 01:20:35;;;;;;;13.53;9.87;;;;;;;-142.06;100.00;64312.41;5053601;28;20193;-81
2023/12/28 01:23:03;;;;;;;14.50;10.87;;;;;;;-142.06;100.00;64312.41;5059782;28;20202;-82
2023/12/28 01:25:31;;;;;;;11.87;10.33;;;;;;;-142.06;100.00;64312.41;5038966;28;20714;-81
2023/12/28 01:27:58;;;;;;;11.97;10.67;;;;;;;-142.06;100.00;64312.41;5052992;28;20236;-80
2023/12/28 01:30:26;;;;;;;12.90;11.23;;;;;;;-142.06;100.00;64312.41;5058883;28;20264;-79
2023/12/28 01:32:53;;;;;;;13.33;10.93;;;;;;;-142.06;100.00;64312.41;5058378;28;20189;-81
2023/12/28 01:35:20;;;;;;;13.03;11.20;;;;;;;-142.06;100.00;64312.41;5054377;28;20296;-80
2023/12/28 01:37:47;;;;;;;14.20;11.13;;;;;;;-142.06;100.00;64312.41;5051663;28;20241;-81
2023/12/28 01:40:15;;;;;;;12.93;10.70;;;;;;;-142.06;100.00;64312.41;5048044;28;20198;-81
2023/12/28 01:42:42;;;;;;;11.43;9.77;;;;;;;-142.06;100.00;64312.41;5055354;28;20650;-79
2023/12/28 01:45:09;;;;;;;13.00;10.17;;;;;;;-142.06;100.00;64312.41;5028816;28;20200;-78
2023/12/28 01:47:36;;;;;;;11.70;9.87;;;;;;;-142.06;100.00;64312.41;5038928;28;20194;-81
2023/12/28 01:50:06;;;;;;;11.70;9.80;;;;;;;-142.06;100.00;64312.41;5040099;28;20269;-80
2023/12/28 01:52:33;;;;;;;12.70;10.20;;;;;;;-142.06;100.00;64312.41;5041511;28;20198;-81
2023/12/28 01:55:00;;;;;;;11.50;10.30;;;;;;;-142.06;100.00;64312.41;5050554;28;20204;-80
2023/12/28 01:57:27;;;;;;;11.50;9.80;;;;;;;-142.06;100.00;64312.41;5047655;28;20292;-82
2023/12/28 01:59:54;;;;;;;12.63;10.27;;;;;;;-142.06;100.00;64312.41;5033259;28;20733;-81
2023/12/28 02:02:22;;;;;;;14.23;10.90;;;;;;;-142.06;100.00;64312.41;5051049;28;20201;-82
2023/12/28 02:04:49;;;;;;;13.37;10.97;;;;;;;-142.06;100.00;64312.41;5055183;28;20198;-82
2023/12/28 02:07:17;;;;;;;12.00;10.40;;;;;;;-142.06;100.00;64312.41;5053690;28;20243;-81
2023/12/28 02:09:43;;;;;;;13.27;10.53;;;;;;;-142.06;100.00;64312.41;5036102;28;20193;-83
2023/12/28 02:12:10;;;;;;;13.03;10.80;;;;;;;-142.06;100.00;64312.41;5051083;28;20209;-83
2023/12/28 02:14:37;;;;;;;11.33;9.97;;;;;;;-142.06;100.00;64312.41;5034474;28;20206;-80
2023/12/28 02:17:08;;;;;;;12.73;10.27;;;;;;;-142.06;100.00;64312.41;5021404;28;20213;-80
2023/12/28 02:19:53;;;;;;;12.67;10.90;;;;;;;-142.06;100.00;64312.41;5049323;28;20709;-81
2023/12/28 02:22:21;;;;;;;12.73;10.87;;;;;;;-142.06;100.00;64312.41;5034275;28;20197;-80
2023/12/28 02:24:57;;;;;;;15.60;11.00;;;;;;;-142.06;100.00;64312.41;5038422;28;20239;-82
2023/12/28 02:27:24;;;;;;;14.77;11.10;;;;;;;-142.06;100.00;64312.41;5051399;28;20199;-79
2023/12/28 02:29:51;;;;;;;16.93;12.43;;;;;;;-142.06;100.00;64312.41;5047186;28;20277;-80
2023/12/28 02:32:37;;;;;;;22.23;12.23;;;;;;;-142.06;100.00;64312.41;5056307;28;20221;-80
2023/12/28 02:35:14;;;;;;;23.83;13.80;;;;;;;-142.06;100.00;64312.41;5068838;28;20204;-80
2023/12/28 02:37:42;;;;;;;18.67;13.47;;;;;;;-142.06;100.00;64312.41;5033171;28;20251;-82
2023/12/28 02:40:10;;;;;;;23.63;15.30;;;;;;;-142.06;100.00;64312.41;5049444;28;20197;-82
2023/12/28 02:42:37;;;;;;;20.87;14.23;;;;;;;-142.06;100.00;64312.41;5051587;28;20194;-80
2023/12/28 02:45:05;;;;;;;20.03;14.87;;;;;;;-142.06;100.00;64312.41;5043426;28;20194;-79
2023/12/28 02:47:31;;;;;;;22.87;14.90;;;;;;;-142.06;100.00;64312.41;5046656;28;20259;-82
2023/12/28 02:49:59;;;;;;;23.77;15.97;;;;;;;-142.06;100.00;64312.41;5050758;28;20243;-81
2023/12/28 02:52:26;;;;;;;20.73;15.53;;;;;;;-142.06;100.00;64312.41;5051784;28;20189;-81
2023/12/28 02:54:53;;;;;;;22.23;15.80;;;;;;;-142.06;100.00;64312.41;5051103;28;20197;-80
2023/12/28 02:57:20;;;;;;;24.67;15.67;;;;;;;-142.06;100.00;64312.41;5055115;28;20233;-80
2023/12/28 02:59:47;;;;;;;25.40;15.70;;;;;;;-142.06;100.00;64312.41;5055177;28;20189;-78
2023/12/28 03:02:14;;;;;;;20.00;15.77;;;;;;;-142.06;100.00;64312.41;5037788;28;20256;-80
2023/12/28 03:04:40;;;;;;;20.53;15.37;;;;;;;-142.06;100.00;64312.41;5056018;28;20200;-81
2023/12/28 03:07:08;;;;;;;20.30;15.20;;;;;;;-142.06;100.00;64312.41;5053851;28;20197;-82
2023/12/28 03:09:35;;;;;;;21.37;15.23;;;;;;;-142.06;100.00;64312.41;5053500;28;20193;-80
2023/12/28 03:12:01;;;;;;;20.77;16.17;;;;;;;-142.06;100.00;64312.41;5057205;28;20221;-80
2023/12/28 03:14:28;;;;;;;18.70;14.90;;;;;;;-142.06;100.00;64312.41;5053069;28;20206;-79
2023/12/28 03:16:55;;;;;;;18.83;15.47;;;;;;;-142.06;100.00;64312.41;5055515;28;20221;-83
2023/12/28 03:19:22;;;;;;;20.23;15.63;;;;;;;-142.06;100.00;64312.41;5041672;28;20201;-80
2023/12/28 03:21:49;;;;;;;19.43;15.60;;;;;;;-142.06;100.00;64312.41;5056910;28;20231;-79
2023/12/28 03:24:15;;;;;;;22.83;15.53;;;;;;;-142.06;100.00;64312.41;5055008;28;20198;-80
2023/12/28 03:26:42;;;;;;;19.40;15.53;;;;;;;-142.06;100.00;64312.41;5057449;28;20729;-80
2023/12/28 03:29:09;;;;;;;22.73;16.53;;;;;;;-142.06;100.00;64312.41;5055643;28;20224;-78
2023/12/28 03:31:41;;;;;;;29.13;17.07;;;;;;;-142.06;100.00;64312.41;5053637;28;20661;-79
2023/12/28 03:34:08;;;;;;;24.03;16.67;;;;;;;-142.06;100.00;64312.41;5055006;28;20197;-81
2023/12/28 03:36:35;;;;;;;27.47;16.43;;;;;;;-142.06;100.00;64312.41;5052563;28;20241;-79
2023/12/28 03:39:03;;;;;;;26.37;16.60;;;;;;;-142.06;100.00;64312.41;5052467;28;20259;-80
2023/12/28 03:41:30;;;;;;;32.20;17.07;;;;;;;-142.06;100.00;64312.41;5054516;28;20197;-81
2023/12/28 03:43:57;;;;;;;22.07;15.87;;;;;;;-142.06;100.00;64312.41;5055507;28;20743;-81
2023/12/28 03:46:24;;;;;;;23.97;17.07;;;;;;;-142.06;100.00;64312.41;5056148;28;20259;-81
2023/12/28 03:48:50;;;;;;;30.53;16.57;;;;;;;-142.06;100.00;64312.41;5052186;28;20196;-80
2023/12/28 03:51:18;;;;;;;19.30;16.37;;;;;;;-142.06;100.00;64312.41;5039871;28;20280;-81
2023/12/28 03:53:45;;;;;;;32.87;18.23;;;;;;;-142.06;100.00;64312.41;5055031;28;20269;-80
2023/12/28 03:56:22;;;;;;;26.43;17.30;;;;;;;-142.06;100.00;64312.41;5056034;28;20221;-81
2023/12/28 03:58:49;;;;;;;31.03;16.30;;;;;;;-142.06;100.00;64312.41;5051600;28;20669;-80
2023/12/28 04:01:18;;;;;;;17.40;14.30;;;;;;;-142.06;100.00;64312.41;5035631;28;20208;-80
2023/12/28 04:03:46;;;;;;;24.60;14.63;;;;;;;-142.06;100.00;64312.41;5057814;28;20666;-81
2023/12/28 04:06:13;;;;;;;18.80;15.03;;;;;;;-142.06;100.00;64312.41;5058249;28;20208;-80
2023/12/28 04:08:41;;;;;;;18.53;14.53;;;;;;;-142.06;100.00;64312.41;5055823;28;20224;-79
2023/12/28 04:11:08;;;;;;;21.67;15.23;;;;;;;-142.06;100.00;64312.41;5053312;28;20681;-79
2023/12/28 04:13:37;;;;;;;18.97;14.23;;;;;;;-142.06;100.00;64312.41;5051990;28;20193;-82
2023/12/28 04:16:04;;;;;;;20.77;14.40;;;;;;;-142.06;100.00;64312.41;5058758;28;20225;-83
2023/12/28 04:18:31;;;;;;;28.70;14.10;;;;;;;-142.06;100.00;64312.41;5063242;28;20284;-80
2023/12/28 04:20:58;;;;;;;20.03;14.20;;;;;;;-142.06;100.00;64312.41;5053314;28;20277;-80
2023/12/28 04:23:25;;;;;;;18.20;14.57;;;;;;;-142.06;100.00;64312.41;5040702;28;20197;-81
2023/12/28 04:25:52;;;;;;;21.63;14.97;;;;;;;-142.06;100.00;64312.41;5035889;28;20213;-81
2023/12/28 04:28:19;;;;;;;20.00;14.83;;;;;;;-142.06;100.00;64312.41;5052924;28;20224;-80
2023/12/28 04:30:46;;;;;;;25.07;15.80;;;;;;;-142.06;100.00;64312.41;5053384;28;20197;-81
2023/12/28 04:33:13;;;;;;;22.53;15.77;;;;;;;-142.06;100.00;64312.41;5051556;28;20673;-79
2023/12/28 04:35:40;;;;;;;28.20;15.40;;;;;;;-142.06;100.00;64312.41;5034500;28;20670;-81
2023/12/28 04:38:08;;;;;;;20.20;15.37;;;;;;;-142.06;100.00;64312.41;5007813;28;1291779;-81
2023/12/28 04:40:35;;;;;;;20.27;14.87;;;;;;;-142.06;100.00;64312.41;5038973;28;20670;-80
2023/12/28 04:43:02;;;;;;;20.97;15.67;;;;;;;-142.06;100.00;64312.41;5049971;28;20198;-80
2023/12/28 04:45:29;;;;;;;25.07;16.13;;;;;;;-142.06;100.00;64312.41;5052679;28;20206;-83
2023/12/28 04:47:57;;;;;;;22.10;15.03;;;;;;;-142.06;100.00;64312.41;5055811;28;20284;-82
2023/12/28 04:50:24;;;;;;;34.43;15.90;;;;;;;-142.06;100.00;64312.41;5055545;28;20185;-79
2023/12/28 04:52:51;;;;;;;26.00;15.10;;;;;;;-142.06;100.00;64312.41;5054893;28;20209;-81
2023/12/28 04:55:18;;;;;;;20.37;15.40;;;;;;;-142.06;100.00;64312.41;5052650;28;20288;-81
2023/12/28 04:57:45;;;;;;;24.80;15.30;;;;;;;-142.06;100.00;64312.41;5046465;28;20219;-80
2023/12/28 05:00:12;;;;;;;20.93;15.10;;;;;;;-142.06;100.00;64312.41;5055182;28;20284;-82
2023/12/28 05:02:39;;;;;;;31.37;16.70;;;;;;;-142.06;100.00;64312.41;5053238;28;20692;-80
2023/12/28 05:05:06;;;;;;;25.33;16.57;;;;;;;-142.06;100.00;64312.41;5053539;28;20267;-81
2023/12/28 05:07:33;;;;;;;27.67;17.63;;;;;;;-142.06;100.00;64312.41;5053814;28;20283;-80
2023/12/28 05:10:00;;;;;;;28.87;18.03;;;;;;;-142.06;100.00;64312.41;5056013;28;20193;-82
2023/12/28 05:12:27;;;;;;;29.50;17.73;;;;;;;-142.06;100.00;64312.41;5052410;28;20285;-80
2023/12/28 05:15:02;;;;;;;33.03;17.60;;;;;;;-142.06;100.00;64312.41;5053660;28;20192;-80
2023/12/28 05:17:29;;;;;;;38.03;18.37;;;;;;;-142.06;100.00;64312.41;5052042;28;20263;-80
2023/12/28 05:19:56;;;;;;;31.43;16.57;;;;;;;-142.06;100.00;64312.41;5051198;28;20190;-82
2023/12/28 05:22:23;;;;;;;38.63;17.50;;;;;;;-142.06;100.00;64312.41;5053526;28;20193;-80
2023/12/28 05:24:49;;;;;;;40.20;16.80;;;;;;;-142.06;100.00;64312.41;5054169;28;20268;-81
2023/12/28 05:27:16;;;;;;;30.43;16.83;;;;;;;-142.06;100.00;64312.41;5052336;28;20193;-81
2023/12/28 05:29:43;;;;;;;31.13;17.67;;;;;;;-142.06;100.00;64312.41;5046308;28;20304;-80
2023/12/28 05:32:10;;;;;;;29.57;16.57;;;;;;;-142.06;100.00;64312.41;5046234;28;20198;-80
2023/12/28 05:34:37;;;;;;;28.40;17.30;;;;;;;-142.06;100.00;64312.41;5027414;28;20196;-79
2023/12/28 05:37:04;;;;;;;37.37;17.07;;;;;;;-142.06;100.00;64312.41;5035470;28;20241;-80
2023/12/28 05:39:30;;;;;;;39.03;17.60;;;;;;;-142.06;100.00;64312.41;5037199;28;20204;-81
2023/12/28 05:41:57;;;;;;;40.43;17.77;;;;;;;-142.06;100.00;64312.41;5052684;28;20271;-80
2023/12/28 05:44:24;;;;;;;35.00;17.80;;;;;;;-142.06;100.00;64312.41;5053997;28;20189;-80
2023/12/28 05:46:52;;;;;;;24.83;16.80;;;;;;;-142.06;100.00;64312.41;5040690;28;20305;-80
2023/12/28 05:49:19;;;;;;;28.87;17.77;;;;;;;-142.06;100.00;64312.41;5046974;28;20189;-81
2023/12/28 05:51:45;;;;;;;29.67;16.63;;;;;;;-142.06;100.00;64312.41;5040294;28;20217;-79
2023/12/28 05:54:12;;;;;;;42.10;17.90;;;;;;;-142.06;100.00;64312.41;5049058;28;20194;-79
2023/12/28 05:56:39;;;;;;;30.77;17.67;;;;;;;-142.06;100.00;64312.41;5053822;28;20677;-79
2023/12/28 05:59:06;;;;;;;40.20;18.33;;;;;;;-142.06;100.00;64312.41;5050763;28;20185;-80
2023/12/28 06:01:42;;;;;;;40.77;18.63;;;;;;;-142.06;100.00;64312.41;5049665;28;20198;-80
2023/12/28 06:04:08;;;;;;;56.00;18.70;;;;;;;-142.06;100.00;64312.41;5048041;28;20243;-80
2023/12/28 06:06:36;;;;;;;29.70;18.77;;;;;;;-142.06;100.00;64312.41;5052016;28;20217;-82
2023/12/28 06:09:03;;;;;;;24.90;18.03;;;;;;;-142.06;100.00;64312.41;5047923;28;20197;-80
2023/12/28 06:11:30;;;;;;;44.27;19.43;;;;;;;-142.06;100.00;64312.41;5052282;28;20189;-79
2023/12/28 06:13:57;;;;;;;31.23;18.53;;;;;;;-142.06;100.00;64312.41;5017885;28;20259;-81
2023/12/28 06:16:25;;;;;;;30.87;19.03;;;;;;;-142.06;100.00;64312.41;5056730;28;20217;-80
2023/12/28 06:18:52;;;;;;;28.33;18.47;;;;;;;-142.06;100.00;64312.41;5051134;28;20284;-80
2023/12/28 06:21:19;;;;;;;31.63;18.67;;;;;;;-142.06;100.00;64312.41;5034599;28;20236;-80
2023/12/28 06:23:46;;;;;;;32.20;18.00;;;;;;;-142.06;100.00;64312.41;5052771;28;20185;-78
2023/12/28 06:26:13;;;;;;;43.30;18.77;;;;;;;-142.06;100.00;64312.41;5053521;28;20224;-80
2023/12/28 06:28:40;;;;;;;37.50;18.33;;;;;;;-142.06;100.00;64312.41;5039604;28;20217;-80
2023/12/28 06:31:06;;;;;;;41.10;19.07;;;;;;;-142.06;100.00;64312.41;5050628;28;20198;-81
2023/12/28 06:33:33;;;;;;;28.73;18.10;;;;;;;-142.06;100.00;64312.41;5035236;28;20201;-82
2023/12/28 06:36:10;;;;;;;41.67;19.10;;;;;;;-142.06;100.00;64312.41;5050641;28;20685;-81
2023/12/28 06:38:37;;;;;;;47.00;17.93;;;;;;;-142.06;100.00;64312.41;5058033;28;20185;-78
2023/12/28 06:41:11;;;;;;;31.23;18.50;;;;;;;-142.06;100.00;64312.41;5051000;28;20196;-81
2023/12/28 06:43:38;;;;;;;29.87;18.83;;;;;;;-142.06;100.00;64312.41;5051180;28;20208;-80
2023/12/28 06:46:04;;;;;;;30.33;19.30;;;;;;;-142.06;100.00;64312.41;5050832;28;20666;-79
2023/12/28 06:48:31;;;;;;;31.50;19.33;;;;;;;-142.06;100.00;64312.41;5048868;28;20205;-79
2023/12/28 06:50:58;;;;;;;35.57;19.50;;;;;;;-142.06;100.00;64312.41;5051784;28;20197;-80
2023/12/28 06:53:25;;;;;;;29.60;19.47;;;;;;;-142.06;100.00;64312.41;5051225;28;20288;-81
2023/12/28 06:55:52;;;;;;;49.93;20.17;;;;;;;-142.06;100.00;64312.41;5056107;28;20193;-79
2023/12/28 06:58:19;;;;;;;27.40;18.27;;;;;;;-142.06;100.00;64312.41;5049924;28;20307;-80
2023/12/28 07:00:46;;;;;;;29.07;18.50;;;;;;;-142.06;100.00;64312.41;5051939;28;20194;-80
2023/12/28 07:03:13;;;;;;;27.80;18.43;;;;;;;-142.06;100.00;64312.41;5055349;28;20202;-82
2023/12/28 07:05:40;;;;;;;34.03;18.47;;;;;;;-142.06;100.00;64312.41;5053188;28;20189;-81
2023/12/28 07:08:07;;;;;;;29.93;19.23;;;;;;;-142.06;100.00;64312.41;5030965;28;20211;-80
2023/12/28 07:10:35;;;;;;;31.47;18.80;;;;;;;-142.06;100.00;64312.41;5037899;28;20600;-80
2023/12/28 07:13:03;;;;;;;30.60;18.17;;;;;;;-142.06;100.00;64312.41;5052851;28;20205;-79
2023/12/28 07:15:29;;;;;;;29.63;18.43;;;;;;;-142.06;100.00;64312.41;5054340;28;20185;-82
2023/12/28 07:17:56;;;;;;;29.67;17.40;;;;;;;-142.06;100.00;64312.41;5051961;28;20225;-82
2023/12/28 07:20:24;;;;;;;31.10;19.00;;;;;;;-142.06;100.00;64312.41;5051763;28;20280;-81
2023/12/28 07:22:50;;;;;;;28.33;17.77;;;;;;;-142.06;100.00;64312.41;5041341;28;20216;-81
2023/12/28 07:25:21;;;;;;;29.77;17.43;;;;;;;-142.06;100.00;64312.41;5029115;28;20232;-78
2023/12/28 07:27:48;;;;;;;29.90;18.03;;;;;;;-142.06;100.00;64312.41;5043717;28;20666;-80
2023/12/28 07:30:16;;;;;;;26.77;17.90;;;;;;;-142.06;100.00;64312.41;5045664;28;20666;-80
2023/12/28 07:32:45;;;;;;;39.90;18.33;;;;;;;-142.06;100.00;64312.41;5044214;28;20209;-79
2023/12/28 07:35:12;;;;;;;35.60;17.50;;;;;;;-142.06;100.00;64312.41;5031496;28;20263;-81
2023/12/28 07:37:39;;;;;;;28.27;17.13;;;;;;;-142.06;100.00;64312.41;5032213;28;20228;-81
2023/12/28 07:40:06;;;;;;;26.53;17.47;;;;;;;-142.06;100.00;64312.41;5048736;28;20189;-80
2023/12/28 07:42:33;;;;;;;29.17;17.90;;;;;;;-142.06;100.00;64312.41;5051210;28;20194;-81
2023/12/28 07:45:00;;;;;;;35.50;17.83;;;;;;;-142.06;100.00;64312.41;5037263;28;20666;-81
2023/12/28 07:47:27;;;;;;;29.97;17.87;;;;;;;-142.06;100.00;64312.41;5054190;28;20206;-81
2023/12/28 07:49:54;;;;;;;28.50;17.37;;;;;;;-142.06;100.00;64312.41;5052279;28;20273;-78
2023/12/28 07:52:21;;;;;;;29.50;17.70;;;;;;;-142.06;100.00;64312.41;5053685;28;20690;-80
2023/12/28 07:54:48;;;;;;;27.70;17.73;;;;;;;-142.06;100.00;64312.41;5052033;28;20284;-78
2023/12/28 07:57:15;;;;;;;26.77;16.67;;;;;;;-142.06;100.00;64312.41;5035139;28;20241;-78
2023/12/28 07:59:41;;;;;;;27.37;17.80;;;;;;;-142.06;100.00;64312.41;5034029;28;20222;-80
2023/12/28 08:02:08;;;;;;;30.53;16.40;;;;;;;-142.06;100.00;64312.41;5053503;28;20193;-82
2023/12/28 08:04:35;;;;;;;32.37;17.30;;;;;;;-142.06;100.00;64312.41;5052051;28;20208;-80
2023/12/28 08:07:02;;;;;;;25.53;16.20;;;;;;;-142.06;100.00;64312.41;5052658;28;20197;-80
2023/12/28 08:09:29;;;;;;;24.20;15.47;;;;;;;-142.06;100.00;64312.41;5051292;28;20221;-81
2023/12/28 08:11:56;;;;;;;23.97;15.60;;;;;;;-142.06;100.00;64312.41;5053501;28;20255;-79
2023/12/28 08:14:23;;;;;;;34.07;16.43;;;;;;;-142.06;100.00;64312.41;5053252;28;20189;-79
2023/12/28 08:16:49;;;;;;;27.33;17.03;;;;;;;-142.06;100.00;64312.41;5036366;28;20309;-81
2023/12/28 08:19:16;;;;;;;25.20;16.07;;;;;;;-142.06;100.00;64312.41;5051681;28;20205;-80
2023/12/28 08:21:43;;;;;;;26.90;16.60;;;;;;;-142.06;100.00;64312.41;5035321;28;20193;-78
2023/12/28 08:24:10;;;;;;;34.07;16.17;;;;;;;-142.06;100.00;64312.41;5052997;28;20280;-81
2023/12/28 08:26:37;;;;;;;25.37;16.17;;;;;;;-142.06;100.00;64312.41;5049246;28;20215;-78
2023/12/28 08:29:04;;;;;;;25.20;16.60;;;;;;;-142.06;100.00;64312.41;5034870;28;20230;-79
2023/12/28 08:31:31;;;;;;;26.00;15.47;;;;;;;-142.06;100.00;64312.41;5051946;28;20209;-80
2023/12/28 08:33:58;;;;;;;25.17;15.80;;;;;;;-142.06;100.00;64312.41;5051205;28;20189;-80
2023/12/28 08:36:25;;;;;;;25.20;16.40;;;;;;;-142.06;100.00;64312.41;5048986;28;20336;-78
2023/12/28 08:38:52;;;;;;;25.10;16.47;;;;;;;-142.06;100.00;64312.41;5035262;28;20314;-80
2023/12/28 08:41:23;;;;;;;25.57;16.87;;;;;;;-142.06;100.00;64312.41;5050541;28;20189;-81
2023/12/28 08:43:52;;;;;;;30.57;15.83;;;;;;;-142.06;100.00;64312.41;5051587;28;20216;-79
2023/12/28 08:46:19;;;;;;;23.33;15.90;;;;;;;-142.06;100.00;64312.41;5035098;28;20186;-82
2023/12/28 08:48:46;;;;;;;25.20;15.80;;;;;;;-142.06;100.00;64312.41;5051371;28;20225;-80
2023/12/28 08:51:14;;;;;;;24.60;14.87;;;;;;;-142.06;100.00;64312.41;5055286;28;20224;-78
2023/12/28 08:53:42;;;;;;;28.80;15.13;;;;;;;-142.06;100.00;64312.41;5050935;28;20255;-78
2023/12/28 08:56:22;;;;;;;23.93;15.83;;;;;;;-142.06;100.00;64312.41;5049820;28;20182;-81
2023/12/28 08:58:51;;;;;;;22.30;15.43;;;;;;;-142.06;100.00;64312.41;5056422;28;20318;-80
2023/12/28 09:01:22;;;;;;;22.63;15.50;;;;;;;-142.06;100.00;64312.41;5038096;28;20196;-80
2023/12/28 09:03:50;;;;;;;25.33;15.57;;;;;;;-142.06;100.00;64312.41;5054019;28;20193;-80
2023/12/28 09:06:18;;;;;;;23.37;14.97;;;;;;;-142.06;100.00;64312.41;5040697;28;20190;-79
2023/12/28 09:08:47;;;;;;;23.33;15.30;;;;;;;-142.06;100.00;64312.41;5054269;28;20186;-80
2023/12/28 09:11:14;;;;;;;21.93;14.77;;;;;;;-142.06;100.00;64312.41;5036754;28;20197;-80
2023/12/28 09:13:41;;;;;;;22.00;14.87;;;;;;;-142.06;100.00;64312.41;5046599;28;20710;-79
2023/12/28 09:16:11;;;;;;;22.50;15.70;;;;;;;-142.06;100.00;64312.41;5040367;28;20199;-81
2023/12/28 09:18:38;;;;;;;23.67;16.03;;;;;;;-142.06;100.00;64312.41;5052443;28;20217;-79
2023/12/28 09:21:06;;;;;;;23.57;16.10;;;;;;;-142.06;100.00;64312.41;5025205;28;20193;-80
2023/12/28 09:23:34;;;;;;;22.93;15.40;;;;;;;-142.06;100.00;64312.41;5037023;28;20194;-79
2023/12/28 09:26:05;;;;;;;21.97;15.17;;;;;;;-142.06;100.00;64312.41;5052359;28;20193;-79
2023/12/28 09:28:33;;;;;;;20.43;14.50;;;;;;;-142.06;100.00;64312.41;5053122;28;20221;-81
2023/12/28 09:31:01;;;;;;;19.87;14.23;;;;;;;-142.06;100.00;64312.41;5051769;28;20268;-80
2023/12/28 09:33:28;;;;;;;19.67;13.93;;;;;;;-142.06;100.00;64312.41;5050324;28;20217;-80
2023/12/28 09:35:56;;;;;;;20.57;14.37;;;;;;;-142.06;100.00;64312.41;5051613;28;20265;-81
2023/12/28 09:38:23;;;;;;;18.23;14.13;;;;;;;-142.06;100.00;64312.41;5012229;28;20250;-78
2023/12/28 09:40:53;;;;;;;21.97;14.47;;;;;;;-142.06;100.00;64312.41;5014408;28;20262;-79
2023/12/28 09:43:36;;;;;;;21.50;14.00;;;;;;;-142.06;100.00;64312.41;5014631;28;20236;-80
2023/12/28 09:46:07;;;;;;;21.60;15.60;;;;;;;-142.06;100.00;64312.41;5015598;28;20675;-79
2023/12/28 09:48:36;;;;;;;20.97;15.53;;;;;;;-142.06;100.00;64312.41;4999834;28;20195;-82
2023/12/28 09:51:04;;;;;;;23.20;15.07;;;;;;;-142.06;100.00;64312.41;5010155;28;20187;-81
2023/12/28 09:53:31;;;;;;;21.23;15.43;;;;;;;-142.06;100.00;64312.41;4995176;28;20207;-80
2023/12/28 09:55:59;;;;;;;20.67;14.50;;;;;;;-142.06;100.00;64312.41;4991964;28;20199;-79
2023/12/28 09:58:27;;;;;;;19.23;14.83;;;;;;;-142.06;100.00;64312.41;4997381;28;20234;-83
2023/12/28 10:00:54;;;;;;;24.43;18.33;;;;;;;-142.06;100.00;64312.41;5011949;28;20198;-80
2023/12/28 10:03:21;;;;;;;26.40;17.87;;;;;;;-142.06;100.00;64312.41;5011311;28;20278;-81
2023/12/28 10:05:48;;;;;;;20.93;16.13;;;;;;;-142.06;100.00;64312.41;5012128;28;20281;-78
2023/12/28 10:08:15;;;;;;;18.80;15.00;;;;;;;-142.06;100.00;64312.41;5012207;28;20211;-78
2023/12/28 10:10:43;;;;;;;22.67;16.43;;;;;;;-142.06;100.00;64312.41;5013182;28;20281;-80
2023/12/28 10:13:11;;;;;;;19.87;15.33;;;;;;;-142.06;100.00;64312.41;5011937;28;20241;-79
2023/12/28 10:15:38;;;;;;;20.63;16.10;;;;;;;-142.06;100.00;64312.41;5012032;28;20656;-80
2023/12/28 10:18:05;;;;;;;19.77;15.30;;;;;;;-142.06;100.00;64312.41;5000456;28;20314;-79
2023/12/28 10:20:32;;;;;;;20.70;16.53;;;;;;;-142.06;100.00;64312.41;4991283;28;20245;-79
2023/12/28 10:23:00;;;;;;;21.57;16.50;;;;;;;-142.06;100.00;64312.41;5003153;28;20895;-79
2023/12/28 10:25:30;;;;;;;22.07;16.03;;;;;;;-142.06;100.00;64312.41;5014081;28;20300;-81
2023/12/28 10:27:56;;;;;;;22.33;16.87;;;;;;;-142.06;100.00;64312.41;5011834;28;20199;-79
2023/12/28 10:30:23;;;;;;;22.57;16.53;;;;;;;-142.06;100.00;64312.41;4993044;28;20206;-79
2023/12/28 10:32:51;;;;;;;22.67;15.77;;;;;;;-142.06;100.00;64312.41;5011966;28;20195;-78
2023/12/28 10:35:19;;;;;;;23.77;17.57;;;;;;;-142.06;100.00;64312.41;5010810;28;20191;-79
2023/12/28 10:37:48;;;;;;;23.77;16.43;;;;;;;-142.06;100.00;64312.41;5047952;28;20229;-80
2023/12/28 10:40:17;;;;;;;22.70;17.63;;;;;;;-142.06;100.00;64312.41;5052676;28;20194;-80
2023/12/28 10:42:53;;;;;;;25.03;17.73;;;;;;;-142.06;100.00;64312.41;5068035;28;20203;-80
2023/12/28 10:45:24;;;;;;;25.37;18.80;;;;;;;-142.06;100.00;64312.41;5054449;28;20188;-79
2023/12/28 10:48:09;;;;;;;25.10;18.37;;;;;;;-142.06;100.00;64312.41;5051316;28;20190;-79
2023/12/28 10:50:39;;;;;;;20.87;16.47;;;;;;;-142.06;100.00;64312.41;5055694;28;20200;-79
2023/12/28 10:53:38;;;;;;;23.07;17.03;;;;;;;-142.06;100.00;64312.41;5065218;28;20192;-79
2023/12/28 10:56:14;;;;;;;22.23;16.87;;;;;;;-142.06;100.00;64312.41;5030588;28;20213;-80
2023/12/28 10:58:48;;;;;;;20.67;16.27;;;;;;;-142.06;100.00;64312.41;5050079;28;20271;-80